Oakes, ND

6:54 AM CDT on September 01, 2014 (GMT -0500)
Oakes | Change Station
CLOSE
Current Station
Airport
Location: Oakes,
Elevation: 1335 ft
Nearby Weather Stations

Elev 1335 ft 46.17 °N, 98.08 °W | Updated 19 minutes ago

Fog
Fog
55 °F
Feels Like 55 °F
N
6
Wind Variable Wind from NW
Gusts 8 mph

Today
High -- | Low -- °F
--% Chance of Precip.
Yesterday
High -- | Low -- °F
Precip. -- in
6:53 AM 8:10 PM
Waxing Crescent, 40% visible
Pressure 29.74 in
Visibility 10.0 miles
Clouds
Dew Point 55 °F
Humidity 100%
Rainfall 0.00 in
Snow Depth Not available.
UV Not available.
Pollen 9.40 out of 12
Air Quality Not available.
Flu Activity Not available.
METAR K2D5 011135Z AUTO 31005KT 10SM 13/13 A2974 RMK AO2

More Conditions Fewer Conditions

Pressure 29.74 in
Visibility 10.0 miles
Clouds
Dew Point 55 °F
Humidity 100%
Rainfall 0.00 in
Snow Depth Not available.
UV Not available.
Pollen 9.40 out of 12
Air Quality Not available.
Flu Activity Not available.
METAR K2D5 011135Z AUTO 31005KT 10SM 13/13 A2974 RMK AO2

More Conditions Fewer Conditions

10-Day Weather Forecast

Almanac

Astronomy

Sep. 01, 2014 Rise Set
Actual Time 6:53 AM CDT 8:10 PM CDT
Civil Twilight 6:22 AM CDT 8:41 PM CDT
Nautical Twilight 5:44 AM CDT 9:18 PM CDT
Astronomical Twilight 5:04 AM CDT 9:58 PM CDT
Moon 2:02 PM CDT 11:50 PM CDT
Length of Visible Light 14h 19m
Length of Day
13h 17m
Tomorrow will be 3m 8s shorter.
Waxing Crescent, 40% of the Moon is Illuminated
Today
Waxing Crescent
Sep 2
First Quarter
Sep 8
Full
Sep 15
Last Quarter
Sep 24
New

Today's Extremes

State Highs State Lows

Community

WunderPhotos

Upload Photos

1,749,192 photos uploaded!

Nearby

Snow Depth

Station Depth Elevation
No new snow has been reported.

Earthquake Activity

City Distance Mag. Time & Date
No recent earthquake activity has been reported nearby.
Minimum magnitude displayed is 2.5.

Coastal Water Temperatures

Place Temperature
No Stations Reporting

Nearby Weather Stations